AZU9664 SBGO-SBSV
Flight info
| Callsign | AZU9664 |
|---|---|
| Flight time | 1h 40m |
| Altitude | 39000 |
| Route | LODUV DCT UGTAK UZ19 DOTBI |
| Aircraft | A20N/M-SDE2E3FGHIRWXY/LB1 |
Departure
| Time | 2026-04-25 21:40 |
|---|---|
| Airport | Santa Genoveva International Airport (SBGO) |
Arrival
| Time | 2026-04-25 23:21 |
|---|---|
| Airport | Deputado Luiz Eduardo Magalhães International Airport (SBSV) |
| Time | Latitude | Longitude | Altitude | Speed | Heading |
|---|---|---|---|---|---|
| 2026-04-25 21:21 | -16.62942 | -49.21546 | 2462 ft | 0 kts | 68° |
| 2026-04-25 21:31 | -16.62950 | -49.21566 | 2465 ft | 3 kts | 67° |
| 2026-04-25 21:31 | -16.62961 | -49.21588 | 2465 ft | 3 kts | 51° |
| 2026-04-25 21:31 | -16.62977 | -49.21603 | 2462 ft | 3 kts | 8° |
| 2026-04-25 21:31 | -16.62990 | -49.21603 | 2466 ft | 1 kts | 335° |
| 2026-04-25 21:35 | -16.62987 | -49.21604 | 2462 ft | 2 kts | 335° |
| 2026-04-25 21:35 | -16.62952 | -49.21619 | 2462 ft | 10 kts | 339° |
| 2026-04-25 21:35 | -16.62925 | -49.21694 | 2461 ft | 16 kts | 250° |
| 2026-04-25 21:36 | -16.62956 | -49.21849 | 2452 ft | 27 kts | 257° |
| 2026-04-25 21:36 | -16.62992 | -49.22065 | 2443 ft | 28 kts | 271° |
| 2026-04-25 21:36 | -16.62941 | -49.22221 | 2456 ft | 21 kts | 299° |
| 2026-04-25 21:36 | -16.62870 | -49.22349 | 2458 ft | 20 kts | 300° |
| 2026-04-25 21:37 | -16.62802 | -49.22469 | 2457 ft | 19 kts | 300° |
| 2026-04-25 21:37 | -16.62756 | -49.22551 | 2458 ft | 20 kts | 300° |
| 2026-04-25 21:37 | -16.62661 | -49.22721 | 2462 ft | 21 kts | 300° |
| 2026-04-25 21:37 | -16.62587 | -49.22852 | 2459 ft | 14 kts | 300° |
| 2026-04-25 21:38 | -16.62610 | -49.22937 | 2455 ft | 11 kts | 210° |
| 2026-04-25 21:38 | -16.62613 | -49.22939 | 2455 ft | 0 kts | 210° |
| 2026-04-25 21:38 | -16.62614 | -49.22940 | 2458 ft | 1 kts | 210° |
| 2026-04-25 21:38 | -16.62636 | -49.22953 | 2459 ft | 6 kts | 210° |
| 2026-04-25 21:39 | -16.62683 | -49.22974 | 2458 ft | 8 kts | 182° |
| 2026-04-25 21:39 | -16.62728 | -49.22941 | 2457 ft | 8 kts | 126° |
| 2026-04-25 21:39 | -16.62742 | -49.22915 | 2456 ft | 0 kts | 119° |
| 2026-04-25 21:40 | -16.62789 | -49.22832 | 2457 ft | 44 kts | 120° |
| 2026-04-25 21:40 | -16.63065 | -49.22341 | 2458 ft | 111 kts | 120° |
| 2026-04-25 21:40 | -16.63547 | -49.21484 | 2466 ft | 160 kts | 121° |
| 2026-04-25 21:40 | -16.64099 | -49.20503 | 3067 ft | 152 kts | 121° |
| 2026-04-25 21:41 | -16.64629 | -49.19552 | 3613 ft | 157 kts | 121° |
| 2026-04-25 21:41 | -16.65208 | -49.18526 | 4045 ft | 169 kts | 121° |
| 2026-04-25 21:41 | -16.65833 | -49.17423 | 4438 ft | 186 kts | 121° |
| 2026-04-25 21:41 | -16.66523 | -49.16202 | 4749 ft | 205 kts | 121° |
| 2026-04-25 21:42 | -16.67289 | -49.14845 | 4987 ft | 229 kts | 121° |
| 2026-04-25 21:42 | -16.68068 | -49.13311 | 5308 ft | 251 kts | 108° |
| 2026-04-25 21:42 | -16.68205 | -49.11432 | 5685 ft | 274 kts | 78° |
| 2026-04-25 21:42 | -16.67423 | -49.09614 | 6455 ft | 279 kts | 51° |
| 2026-04-25 21:43 | -16.66011 | -49.08211 | 7476 ft | 282 kts | 37° |
| 2026-04-25 21:43 | -16.64463 | -49.06987 | 8462 ft | 286 kts | 36° |
| 2026-04-25 21:43 | -16.62883 | -49.05705 | 9452 ft | 290 kts | 38° |
| 2026-04-25 21:43 | -16.61328 | -49.04339 | 10389 ft | 297 kts | 40° |
| 2026-04-25 21:44 | -16.59725 | -49.02846 | 10860 ft | 321 kts | 41° |
| 2026-04-25 21:44 | -16.58029 | -49.01207 | 11241 ft | 343 kts | 42° |
| 2026-04-25 21:44 | -16.54489 | -48.97731 | 12893 ft | 354 kts | 43° |
| 2026-04-25 21:45 | -16.52682 | -48.95957 | 13736 ft | 359 kts | 43° |
| 2026-04-25 21:45 | -16.51467 | -48.94766 | 14281 ft | 363 kts | 43° |
| 2026-04-25 21:45 | -16.48989 | -48.92341 | 15362 ft | 368 kts | 43° |
| 2026-04-25 21:45 | -16.47114 | -48.90508 | 16130 ft | 372 kts | 43° |
| 2026-04-25 21:46 | -16.45210 | -48.88648 | 16884 ft | 377 kts | 43° |
| 2026-04-25 21:46 | -16.43289 | -48.86772 | 17590 ft | 381 kts | 43° |
| 2026-04-25 21:46 | -16.41342 | -48.84871 | 18309 ft | 385 kts | 43° |
| 2026-04-25 21:46 | -16.39385 | -48.82944 | 18991 ft | 389 kts | 45° |
| 2026-04-25 21:47 | -16.37599 | -48.80805 | 19668 ft | 394 kts | 52° |
| 2026-04-25 21:47 | -16.36091 | -48.78411 | 20329 ft | 398 kts | 60° |
| 2026-04-25 21:47 | -16.34710 | -48.75900 | 20970 ft | 402 kts | 59° |
| 2026-04-25 21:47 | -16.33304 | -48.73367 | 21590 ft | 406 kts | 59° |
| 2026-04-25 21:48 | -16.31881 | -48.70816 | 22211 ft | 409 kts | 59° |
| 2026-04-25 21:48 | -16.30464 | -48.68280 | 22790 ft | 413 kts | 59° |
| 2026-04-25 21:48 | -16.29012 | -48.65682 | 23373 ft | 416 kts | 59° |
| 2026-04-25 21:48 | -16.27557 | -48.63079 | 23934 ft | 420 kts | 59° |
| 2026-04-25 21:49 | -16.26076 | -48.60431 | 24471 ft | 424 kts | 59° |
| 2026-04-25 21:49 | -16.24567 | -48.57733 | 24994 ft | 427 kts | 59° |
| 2026-04-25 21:49 | -16.23064 | -48.55048 | 25510 ft | 431 kts | 59° |
| 2026-04-25 21:49 | -16.21549 | -48.52340 | 26030 ft | 434 kts | 59° |
| 2026-04-25 21:50 | -16.20028 | -48.49625 | 26507 ft | 437 kts | 59° |
| 2026-04-25 21:50 | -16.18492 | -48.46883 | 26949 ft | 440 kts | 59° |
| 2026-04-25 21:50 | -16.16944 | -48.44120 | 27391 ft | 443 kts | 59° |
| 2026-04-25 21:50 | -16.15912 | -48.42279 | 27677 ft | 445 kts | 59° |
| 2026-04-25 21:51 | -16.13813 | -48.38536 | 28219 ft | 449 kts | 59° |
| 2026-04-25 21:51 | -16.12255 | -48.35759 | 28611 ft | 452 kts | 59° |
| 2026-04-25 21:51 | -16.10647 | -48.32894 | 29010 ft | 454 kts | 59° |
| 2026-04-25 21:51 | -16.09046 | -48.30044 | 29344 ft | 458 kts | 59° |
| 2026-04-25 21:52 | -16.07454 | -48.27209 | 29714 ft | 460 kts | 59° |
| 2026-04-25 21:52 | -16.05858 | -48.24369 | 30060 ft | 462 kts | 59° |
| 2026-04-25 21:52 | -16.04228 | -48.21471 | 30398 ft | 465 kts | 59° |
| 2026-04-25 21:52 | -16.02592 | -48.18562 | 30745 ft | 468 kts | 59° |
| 2026-04-25 21:53 | -16.00944 | -48.15634 | 31068 ft | 471 kts | 59° |
| 2026-04-25 21:53 | -15.99294 | -48.12701 | 31489 ft | 470 kts | 59° |
| 2026-04-25 21:53 | -15.97644 | -48.09771 | 31965 ft | 469 kts | 59° |
| 2026-04-25 21:53 | -15.95992 | -48.06839 | 32345 ft | 470 kts | 59° |
| 2026-04-25 21:54 | -15.94342 | -48.03910 | 32741 ft | 470 kts | 59° |
| 2026-04-25 21:54 | -15.92695 | -48.00990 | 33158 ft | 468 kts | 59° |
| 2026-04-25 21:54 | -15.91045 | -47.98063 | 33584 ft | 467 kts | 59° |
| 2026-04-25 21:54 | -15.89406 | -47.95159 | 33981 ft | 466 kts | 59° |
| 2026-04-25 21:55 | -15.87767 | -47.92256 | 34365 ft | 465 kts | 59° |
| 2026-04-25 21:55 | -15.86132 | -47.89360 | 34717 ft | 464 kts | 59° |
| 2026-04-25 21:55 | -15.84498 | -47.86468 | 35068 ft | 463 kts | 59° |
| 2026-04-25 21:55 | -15.82873 | -47.83594 | 35407 ft | 462 kts | 59° |
| 2026-04-25 21:56 | -15.81246 | -47.80715 | 35728 ft | 462 kts | 59° |
| 2026-04-25 21:56 | -15.80169 | -47.78811 | 35915 ft | 462 kts | 59° |
| 2026-04-25 21:56 | -15.77998 | -47.74974 | 36341 ft | 460 kts | 59° |
| 2026-04-25 21:56 | -15.76377 | -47.72110 | 36589 ft | 460 kts | 59° |
| 2026-04-25 21:57 | -15.74756 | -47.69247 | 36840 ft | 460 kts | 59° |
| 2026-04-25 21:57 | -15.73137 | -47.66388 | 37086 ft | 460 kts | 59° |
| 2026-04-25 21:57 | -15.71511 | -47.63519 | 37311 ft | 460 kts | 59° |
| 2026-04-25 21:57 | -15.69890 | -47.60660 | 37518 ft | 461 kts | 59° |
| 2026-04-25 21:58 | -15.68261 | -47.57789 | 37723 ft | 461 kts | 59° |
| 2026-04-25 21:58 | -15.66633 | -47.54919 | 37923 ft | 461 kts | 59° |
| 2026-04-25 21:58 | -15.65005 | -47.52051 | 38133 ft | 461 kts | 59° |
| 2026-04-25 21:58 | -15.63379 | -47.49187 | 38343 ft | 461 kts | 59° |
| 2026-04-25 21:59 | -15.61763 | -47.46343 | 38525 ft | 461 kts | 59° |
| 2026-04-25 21:59 | -15.60122 | -47.43455 | 38756 ft | 460 kts | 59° |
| 2026-04-25 21:59 | -15.58498 | -47.40597 | 38926 ft | 460 kts | 59° |
| 2026-04-25 22:00 | -15.53625 | -47.32032 | 39005 ft | 458 kts | 59° |
| 2026-04-25 22:00 | -15.50383 | -47.26339 | 39000 ft | 458 kts | 59° |
| 2026-04-25 22:01 | -15.47142 | -47.20652 | 39003 ft | 458 kts | 59° |
| 2026-04-25 22:01 | -15.44446 | -47.15925 | 39007 ft | 459 kts | 59° |
| 2026-04-25 22:02 | -15.40645 | -47.09264 | 39009 ft | 459 kts | 59° |
| 2026-04-25 22:02 | -15.37395 | -47.03575 | 38996 ft | 458 kts | 59° |
| 2026-04-25 22:03 | -15.34150 | -46.97897 | 39004 ft | 458 kts | 59° |
| 2026-04-25 22:03 | -15.30900 | -46.92217 | 39001 ft | 459 kts | 59° |
| 2026-04-25 22:04 | -15.27645 | -46.86532 | 39007 ft | 459 kts | 59° |
| 2026-04-25 22:04 | -15.24385 | -46.80842 | 38997 ft | 459 kts | 59° |
| 2026-04-25 22:05 | -15.21123 | -46.75152 | 39001 ft | 459 kts | 59° |
| 2026-04-25 22:05 | -15.17866 | -46.69475 | 38997 ft | 459 kts | 59° |
| 2026-04-25 22:06 | -15.15156 | -46.64755 | 38994 ft | 458 kts | 59° |
| 2026-04-25 22:06 | -15.11925 | -46.59132 | 39003 ft | 458 kts | 59° |
| 2026-04-25 22:07 | -15.09192 | -46.54378 | 39004 ft | 458 kts | 59° |
| 2026-04-25 22:07 | -15.04852 | -46.46837 | 38999 ft | 458 kts | 59° |
| 2026-04-25 22:08 | -15.02121 | -46.42094 | 38989 ft | 458 kts | 59° |
| 2026-04-25 22:08 | -14.98859 | -46.36432 | 38989 ft | 458 kts | 59° |
| 2026-04-25 22:09 | -14.95597 | -46.30776 | 38994 ft | 458 kts | 59° |
| 2026-04-25 22:09 | -14.92339 | -46.25113 | 38990 ft | 458 kts | 60° |
| 2026-04-25 22:10 | -14.89697 | -46.19122 | 38997 ft | 458 kts | 71° |
| 2026-04-25 22:10 | -14.87773 | -46.12836 | 39003 ft | 458 kts | 72° |
| 2026-04-25 22:11 | -14.85867 | -46.06597 | 38995 ft | 459 kts | 72° |
| 2026-04-25 22:11 | -14.83930 | -46.00275 | 38997 ft | 459 kts | 72° |
| 2026-04-25 22:12 | -14.82014 | -45.94021 | 39002 ft | 459 kts | 72° |
| 2026-04-25 22:12 | -14.80405 | -45.88773 | 38996 ft | 459 kts | 72° |
| 2026-04-25 22:13 | -14.78145 | -45.81414 | 38996 ft | 459 kts | 72° |
| 2026-04-25 22:13 | -14.76214 | -45.75128 | 39011 ft | 459 kts | 72° |
| 2026-04-25 22:14 | -14.74279 | -45.68839 | 39002 ft | 459 kts | 72° |
| 2026-04-25 22:14 | -14.72342 | -45.62551 | 39009 ft | 459 kts | 72° |
| 2026-04-25 22:15 | -14.70406 | -45.56270 | 39000 ft | 459 kts | 72° |
| 2026-04-25 22:16 | -14.67494 | -45.46839 | 39002 ft | 459 kts | 72° |
| 2026-04-25 22:16 | -14.65553 | -45.40558 | 39000 ft | 459 kts | 72° |
| 2026-04-25 22:17 | -14.63608 | -45.34274 | 38999 ft | 459 kts | 72° |
| 2026-04-25 22:17 | -14.61664 | -45.27996 | 39001 ft | 459 kts | 72° |
| 2026-04-25 22:18 | -14.59719 | -45.21727 | 39000 ft | 458 kts | 72° |
| 2026-04-25 22:18 | -14.57786 | -45.15501 | 39003 ft | 458 kts | 72° |
| 2026-04-25 22:19 | -14.55838 | -45.09232 | 39004 ft | 458 kts | 72° |
| 2026-04-25 22:19 | -14.53891 | -45.02974 | 38995 ft | 458 kts | 72° |
| 2026-04-25 22:20 | -14.51940 | -44.96711 | 39003 ft | 458 kts | 72° |
| 2026-04-25 22:20 | -14.49990 | -44.90457 | 38992 ft | 458 kts | 72° |
| 2026-04-25 22:21 | -14.48039 | -44.84205 | 39007 ft | 458 kts | 72° |
| 2026-04-25 22:21 | -14.46085 | -44.77950 | 39002 ft | 458 kts | 72° |
| 2026-04-25 22:22 | -14.44128 | -44.71701 | 39004 ft | 458 kts | 72° |
| 2026-04-25 22:22 | -14.42169 | -44.65450 | 39001 ft | 458 kts | 72° |
| 2026-04-25 22:23 | -14.40208 | -44.59200 | 39002 ft | 458 kts | 72° |
| 2026-04-25 22:23 | -14.38246 | -44.52954 | 39012 ft | 458 kts | 72° |
| 2026-04-25 22:24 | -14.36283 | -44.46708 | 38998 ft | 458 kts | 72° |
| 2026-04-25 22:24 | -14.34316 | -44.40460 | 39009 ft | 457 kts | 72° |
| 2026-04-25 22:25 | -14.32351 | -44.34222 | 38999 ft | 457 kts | 72° |
| 2026-04-25 22:25 | -14.30387 | -44.27991 | 39007 ft | 457 kts | 72° |
| 2026-04-25 22:26 | -14.28420 | -44.21760 | 39002 ft | 457 kts | 72° |
| 2026-04-25 22:26 | -14.26452 | -44.15530 | 38998 ft | 457 kts | 72° |
| 2026-04-25 22:27 | -14.24484 | -44.09307 | 39007 ft | 457 kts | 72° |
| 2026-04-25 22:27 | -14.22530 | -44.03129 | 39002 ft | 456 kts | 72° |
| 2026-04-25 22:28 | -14.20563 | -43.96914 | 39005 ft | 456 kts | 72° |
| 2026-04-25 22:28 | -14.18592 | -43.90695 | 39004 ft | 456 kts | 72° |
| 2026-04-25 22:29 | -14.16620 | -43.84478 | 39001 ft | 456 kts | 71° |
| 2026-04-25 22:29 | -14.14650 | -43.78272 | 39000 ft | 456 kts | 71° |
| 2026-04-25 22:30 | -14.11690 | -43.68961 | 38993 ft | 456 kts | 71° |
| 2026-04-25 22:30 | -14.10034 | -43.63760 | 38999 ft | 456 kts | 71° |
| 2026-04-25 22:31 | -14.07738 | -43.56551 | 39002 ft | 456 kts | 71° |
| 2026-04-25 22:31 | -14.05761 | -43.50348 | 39000 ft | 456 kts | 71° |
| 2026-04-25 22:32 | -14.03782 | -43.44147 | 38996 ft | 456 kts | 71° |
| 2026-04-25 22:32 | -14.01800 | -43.37942 | 38994 ft | 456 kts | 71° |
| 2026-04-25 22:33 | -13.99818 | -43.31742 | 39000 ft | 456 kts | 71° |
| 2026-04-25 22:33 | -13.97832 | -43.25540 | 39006 ft | 456 kts | 71° |
| 2026-04-25 22:34 | -13.95847 | -43.19349 | 39001 ft | 456 kts | 71° |
| 2026-04-25 22:34 | -13.93853 | -43.13135 | 38997 ft | 456 kts | 71° |
| 2026-04-25 22:35 | -13.91864 | -43.06944 | 39001 ft | 456 kts | 71° |
| 2026-04-25 22:35 | -13.89869 | -43.00740 | 39000 ft | 456 kts | 71° |
| 2026-04-25 22:36 | -13.87875 | -42.94544 | 38998 ft | 456 kts | 71° |
| 2026-04-25 22:36 | -13.85876 | -42.88342 | 38995 ft | 456 kts | 71° |
| 2026-04-25 22:37 | -13.83877 | -42.82142 | 38987 ft | 457 kts | 71° |
| 2026-04-25 22:37 | -13.81877 | -42.75945 | 38987 ft | 457 kts | 71° |
| 2026-04-25 22:38 | -13.79874 | -42.69745 | 38986 ft | 457 kts | 71° |
| 2026-04-25 22:38 | -13.77866 | -42.63538 | 38987 ft | 457 kts | 71° |
| 2026-04-25 22:39 | -13.75875 | -42.57388 | 38988 ft | 457 kts | 71° |
| 2026-04-25 22:39 | -13.73864 | -42.51181 | 38987 ft | 457 kts | 71° |
| 2026-04-25 22:40 | -13.71849 | -42.44967 | 38989 ft | 458 kts | 71° |
| 2026-04-25 22:40 | -13.69830 | -42.38748 | 38988 ft | 458 kts | 71° |
| 2026-04-25 22:41 | -13.67812 | -42.32537 | 38988 ft | 458 kts | 71° |
| 2026-04-25 22:41 | -13.65789 | -42.26315 | 38990 ft | 459 kts | 71° |
| 2026-04-25 22:42 | -13.63764 | -42.20097 | 39003 ft | 459 kts | 71° |
| 2026-04-25 22:42 | -13.61740 | -42.13885 | 39004 ft | 456 kts | 71° |
| 2026-04-25 22:43 | -13.59714 | -42.07681 | 38998 ft | 460 kts | 71° |
| 2026-04-25 22:43 | -13.57674 | -42.01442 | 38996 ft | 460 kts | 71° |
| 2026-04-25 22:44 | -13.55637 | -41.95213 | 39003 ft | 462 kts | 71° |
| 2026-04-25 22:44 | -13.53585 | -41.88946 | 39008 ft | 463 kts | 71° |
| 2026-04-25 22:45 | -13.51541 | -41.82699 | 38996 ft | 459 kts | 71° |
| 2026-04-25 22:45 | -13.49500 | -41.76472 | 39003 ft | 458 kts | 71° |
| 2026-04-25 22:46 | -13.47472 | -41.70288 | 39002 ft | 459 kts | 71° |
| 2026-04-25 22:46 | -13.45422 | -41.64047 | 38997 ft | 460 kts | 71° |
| 2026-04-25 22:47 | -13.43387 | -41.57853 | 38997 ft | 456 kts | 71° |
| 2026-04-25 22:47 | -13.41691 | -41.52698 | 38995 ft | 461 kts | 71° |
| 2026-04-25 22:48 | -13.39291 | -41.45408 | 39005 ft | 461 kts | 71° |
| 2026-04-25 22:48 | -13.37583 | -41.40224 | 39001 ft | 461 kts | 71° |
| 2026-04-25 22:49 | -13.35523 | -41.33978 | 39007 ft | 462 kts | 71° |
| 2026-04-25 22:49 | -13.33461 | -41.27731 | 39015 ft | 462 kts | 71° |
| 2026-04-25 22:50 | -13.31402 | -41.21499 | 39006 ft | 458 kts | 71° |
| 2026-04-25 22:50 | -13.29357 | -41.15316 | 39003 ft | 457 kts | 71° |
| 2026-04-25 22:51 | -13.27311 | -41.09134 | 39005 ft | 456 kts | 71° |
| 2026-04-25 22:51 | -13.25271 | -41.02978 | 38995 ft | 456 kts | 71° |
| 2026-04-25 22:52 | -13.23222 | -40.96799 | 39004 ft | 457 kts | 71° |
| 2026-04-25 22:52 | -13.21171 | -40.90616 | 39006 ft | 458 kts | 71° |
| 2026-04-25 22:53 | -13.19116 | -40.84430 | 39007 ft | 458 kts | 71° |
| 2026-04-25 22:53 | -13.17062 | -40.78252 | 39006 ft | 456 kts | 71° |
| 2026-04-25 22:54 | -13.15020 | -40.72106 | 39002 ft | 455 kts | 71° |
| 2026-04-25 22:54 | -13.12980 | -40.65956 | 39004 ft | 455 kts | 71° |
| 2026-04-25 22:55 | -13.10936 | -40.59812 | 38995 ft | 455 kts | 71° |
| 2026-04-25 22:55 | -13.08885 | -40.53668 | 39002 ft | 455 kts | 71° |
| 2026-04-25 22:56 | -13.06847 | -40.47564 | 39002 ft | 455 kts | 71° |
| 2026-04-25 22:56 | -13.04791 | -40.41415 | 38996 ft | 455 kts | 71° |
| 2026-04-25 22:57 | -13.02736 | -40.35269 | 38826 ft | 457 kts | 71° |
| 2026-04-25 22:57 | -13.01705 | -40.32192 | 38318 ft | 458 kts | 71° |
| 2026-04-25 22:57 | -13.00663 | -40.29084 | 37575 ft | 461 kts | 71° |
| 2026-04-25 22:58 | -12.99615 | -40.25958 | 36673 ft | 466 kts | 71° |
| 2026-04-25 22:58 | -12.98554 | -40.22798 | 35747 ft | 470 kts | 71° |
| 2026-04-25 22:58 | -12.97490 | -40.19628 | 34898 ft | 471 kts | 71° |
| 2026-04-25 22:58 | -12.96423 | -40.16453 | 34022 ft | 472 kts | 71° |
| 2026-04-25 22:59 | -12.95352 | -40.13264 | 33081 ft | 474 kts | 71° |
| 2026-04-25 22:59 | -12.94275 | -40.10061 | 32137 ft | 476 kts | 71° |
| 2026-04-25 22:59 | -12.93198 | -40.06856 | 31288 ft | 475 kts | 71° |
| 2026-04-25 22:59 | -12.92124 | -40.03665 | 30698 ft | 469 kts | 71° |
| 2026-04-25 23:00 | -12.91068 | -40.00527 | 30072 ft | 463 kts | 71° |
| 2026-04-25 23:00 | -12.90022 | -39.97421 | 29446 ft | 458 kts | 71° |
| 2026-04-25 23:00 | -12.88988 | -39.94350 | 28826 ft | 453 kts | 71° |
| 2026-04-25 23:00 | -12.87963 | -39.91310 | 28212 ft | 448 kts | 71° |
| 2026-04-25 23:01 | -12.86953 | -39.88305 | 27605 ft | 444 kts | 72° |
| 2026-04-25 23:01 | -12.86172 | -39.85261 | 26995 ft | 439 kts | 79° |
| 2026-04-25 23:01 | -12.85766 | -39.82180 | 26394 ft | 434 kts | 86° |
| 2026-04-25 23:01 | -12.85711 | -39.79106 | 25800 ft | 429 kts | 91° |
| 2026-04-25 23:02 | -12.85757 | -39.76063 | 25206 ft | 425 kts | 91° |
| 2026-04-25 23:02 | -12.85791 | -39.73092 | 24620 ft | 421 kts | 90° |
| 2026-04-25 23:02 | -12.85821 | -39.70070 | 24031 ft | 416 kts | 90° |
| 2026-04-25 23:02 | -12.85850 | -39.67118 | 23444 ft | 412 kts | 90° |
| 2026-04-25 23:03 | -12.85878 | -39.64194 | 22864 ft | 408 kts | 90° |
| 2026-04-25 23:03 | -12.85907 | -39.61338 | 22293 ft | 404 kts | 90° |
| 2026-04-25 23:03 | -12.85936 | -39.58429 | 21710 ft | 400 kts | 90° |
| 2026-04-25 23:03 | -12.85963 | -39.55629 | 21136 ft | 397 kts | 90° |
| 2026-04-25 23:04 | -12.85991 | -39.52817 | 20574 ft | 393 kts | 90° |
| 2026-04-25 23:04 | -12.86018 | -39.50030 | 20006 ft | 389 kts | 90° |
| 2026-04-25 23:04 | -12.86044 | -39.47267 | 19445 ft | 386 kts | 90° |
| 2026-04-25 23:04 | -12.86070 | -39.44527 | 18882 ft | 383 kts | 90° |
| 2026-04-25 23:05 | -12.86095 | -39.41813 | 18319 ft | 379 kts | 90° |
| 2026-04-25 23:05 | -12.86120 | -39.39123 | 17765 ft | 376 kts | 90° |
| 2026-04-25 23:05 | -12.86145 | -39.36456 | 17208 ft | 373 kts | 90° |
| 2026-04-25 23:05 | -12.86169 | -39.33810 | 16665 ft | 370 kts | 90° |
| 2026-04-25 23:06 | -12.86192 | -39.31186 | 16117 ft | 367 kts | 90° |
| 2026-04-25 23:06 | -12.86215 | -39.28587 | 15575 ft | 363 kts | 90° |
| 2026-04-25 23:06 | -12.86238 | -39.26009 | 15037 ft | 360 kts | 90° |
| 2026-04-25 23:06 | -12.86260 | -39.23451 | 14502 ft | 358 kts | 90° |
| 2026-04-25 23:07 | -12.86282 | -39.20915 | 13975 ft | 355 kts | 90° |
| 2026-04-25 23:07 | -12.86303 | -39.18402 | 13454 ft | 352 kts | 90° |
| 2026-04-25 23:07 | -12.86324 | -39.15901 | 12930 ft | 349 kts | 90° |
| 2026-04-25 23:07 | -12.86344 | -39.13427 | 12417 ft | 346 kts | 90° |
| 2026-04-25 23:08 | -12.86364 | -39.10979 | 11911 ft | 343 kts | 90° |
| 2026-04-25 23:08 | -12.86384 | -39.08544 | 11396 ft | 340 kts | 90° |
| 2026-04-25 23:08 | -12.86403 | -39.06127 | 10890 ft | 338 kts | 90° |
| 2026-04-25 23:08 | -12.86422 | -39.03729 | 10391 ft | 335 kts | 90° |
| 2026-04-25 23:09 | -12.86441 | -39.01367 | 10127 ft | 325 kts | 90° |
| 2026-04-25 23:09 | -12.86458 | -38.99105 | 9991 ft | 311 kts | 90° |
| 2026-04-25 23:09 | -12.86475 | -38.96935 | 9800 ft | 300 kts | 90° |
| 2026-04-25 23:09 | -12.86491 | -38.94814 | 9470 ft | 294 kts | 90° |
| 2026-04-25 23:10 | -12.86506 | -38.92748 | 9326 ft | 289 kts | 90° |
| 2026-04-25 23:10 | -12.86523 | -38.90660 | 8978 ft | 295 kts | 91° |
| 2026-04-25 23:10 | -12.86745 | -38.88574 | 8591 ft | 295 kts | 102° |
| 2026-04-25 23:10 | -12.87347 | -38.86564 | 8197 ft | 293 kts | 110° |
| 2026-04-25 23:11 | -12.88046 | -38.84612 | 7812 ft | 291 kts | 110° |
| 2026-04-25 23:11 | -12.88727 | -38.82673 | 7433 ft | 288 kts | 110° |
| 2026-04-25 23:11 | -12.89398 | -38.80749 | 7049 ft | 285 kts | 110° |
| 2026-04-25 23:11 | -12.90059 | -38.78849 | 6669 ft | 282 kts | 110° |
| 2026-04-25 23:12 | -12.90716 | -38.76961 | 6293 ft | 280 kts | 110° |
| 2026-04-25 23:12 | -12.91367 | -38.75091 | 5916 ft | 278 kts | 110° |
| 2026-04-25 23:12 | -12.92014 | -38.73229 | 5549 ft | 276 kts | 110° |
| 2026-04-25 23:12 | -12.92656 | -38.71386 | 5175 ft | 274 kts | 110° |
| 2026-04-25 23:13 | -12.93293 | -38.69555 | 4802 ft | 272 kts | 110° |
| 2026-04-25 23:13 | -12.93928 | -38.67732 | 4434 ft | 270 kts | 110° |
| 2026-04-25 23:13 | -12.94554 | -38.65930 | 4115 ft | 267 kts | 110° |
| 2026-04-25 23:13 | -12.95175 | -38.64145 | 4005 ft | 263 kts | 110° |
| 2026-04-25 23:14 | -12.95770 | -38.62431 | 4001 ft | 248 kts | 110° |
| 2026-04-25 23:14 | -12.96272 | -38.60827 | 3987 ft | 232 kts | 100° |
| 2026-04-25 23:14 | -12.96277 | -38.59226 | 3885 ft | 220 kts | 78° |
| 2026-04-25 23:14 | -12.95973 | -38.57810 | 3818 ft | 207 kts | 77° |
| 2026-04-25 23:15 | -12.95691 | -38.56442 | 3750 ft | 187 kts | 78° |
| 2026-04-25 23:15 | -12.95445 | -38.55208 | 3611 ft | 166 kts | 78° |
| 2026-04-25 23:15 | -12.95233 | -38.54134 | 3480 ft | 144 kts | 78° |
| 2026-04-25 23:15 | -12.95039 | -38.53154 | 3212 ft | 139 kts | 78° |
| 2026-04-25 23:16 | -12.94846 | -38.52186 | 2918 ft | 138 kts | 78° |
| 2026-04-25 23:16 | -12.94655 | -38.51228 | 2624 ft | 137 kts | 78° |
| 2026-04-25 23:16 | -12.94466 | -38.50283 | 2474 ft | 135 kts | 78° |
| 2026-04-25 23:16 | -12.94273 | -38.49320 | 2472 ft | 139 kts | 78° |
| 2026-04-25 23:17 | -12.94084 | -38.48370 | 2315 ft | 134 kts | 78° |
| 2026-04-25 23:17 | -12.93899 | -38.47438 | 2219 ft | 136 kts | 78° |
| 2026-04-25 23:17 | -12.93708 | -38.46481 | 2153 ft | 138 kts | 78° |
| 2026-04-25 23:17 | -12.93516 | -38.45524 | 2091 ft | 137 kts | 78° |
| 2026-04-25 23:18 | -12.93324 | -38.44569 | 2033 ft | 137 kts | 78° |
| 2026-04-25 23:18 | -12.93131 | -38.43610 | 1951 ft | 137 kts | 78° |
| 2026-04-25 23:18 | -12.92939 | -38.42654 | 1866 ft | 136 kts | 78° |
| 2026-04-25 23:18 | -12.92747 | -38.41703 | 1730 ft | 136 kts | 78° |
| 2026-04-25 23:19 | -12.92561 | -38.40753 | 1556 ft | 135 kts | 77° |
| 2026-04-25 23:19 | -12.92364 | -38.39806 | 1349 ft | 136 kts | 77° |
| 2026-04-25 23:19 | -12.92175 | -38.38863 | 1112 ft | 135 kts | 78° |
| 2026-04-25 23:19 | -12.92000 | -38.37920 | 941 ft | 135 kts | 79° |
| 2026-04-25 23:20 | -12.91812 | -38.36979 | 741 ft | 134 kts | 78° |
| 2026-04-25 23:20 | -12.91622 | -38.36043 | 475 ft | 133 kts | 78° |
| 2026-04-25 23:20 | -12.91437 | -38.35128 | 311 ft | 132 kts | 78° |
| 2026-04-25 23:20 | -12.91249 | -38.34208 | 162 ft | 130 kts | 78° |
| 2026-04-25 23:21 | -12.91070 | -38.33297 | 54 ft | 130 kts | 77° |
| 2026-04-25 23:21 | -12.90920 | -38.32564 | 51 ft | 64 kts | 79° |
| 2026-04-25 23:21 | -12.90850 | -38.32214 | 51 ft | 40 kts | 81° |
| 2026-04-25 23:21 | -12.90795 | -38.31949 | 47 ft | 31 kts | 78° |
| 2026-04-25 23:22 | -12.90775 | -38.31761 | 46 ft | 26 kts | 115° |
| 2026-04-25 23:22 | -12.90861 | -38.31712 | 51 ft | 0 kts | 164° |
| 2026-04-25 23:23 | -12.90893 | -38.31714 | 50 ft | 6 kts | 198° |
| 2026-04-25 23:23 | -12.90921 | -38.31784 | 53 ft | 16 kts | 259° |
| 2026-04-25 23:23 | -12.90951 | -38.31929 | 53 ft | 25 kts | 257° |
| 2026-04-25 23:23 | -12.90988 | -38.32117 | 50 ft | 28 kts | 257° |
| 2026-04-25 23:24 | -12.91030 | -38.32321 | 47 ft | 30 kts | 256° |
| 2026-04-25 23:24 | -12.91056 | -38.32452 | 52 ft | 19 kts | 258° |
| 2026-04-25 23:24 | -12.91084 | -38.32590 | 52 ft | 21 kts | 260° |
| 2026-04-25 23:24 | -12.91116 | -38.32748 | 48 ft | 25 kts | 259° |
| 2026-04-25 23:25 | -12.91153 | -38.32930 | 47 ft | 28 kts | 259° |
| 2026-04-25 23:25 | -12.91195 | -38.33117 | 43 ft | 23 kts | 238° |
| 2026-04-25 23:25 | -12.91226 | -38.33124 | 43 ft | 8 kts | 172° |
| 2026-04-25 23:25 | -12.91262 | -38.33139 | 43 ft | 8 kts | 237° |
| 2026-04-25 23:26 | -12.91302 | -38.33202 | 43 ft | 9 kts | 211° |
| 2026-04-25 23:26 | -12.91353 | -38.33231 | 41 ft | 0 kts | 208° |
| 2026-04-25 23:26 | -12.91355 | -38.33232 | 41 ft | 0 kts | 208° |